createdAt,value
2018-03-14T00:01:01.355Z,19.48
2018-03-14T00:02:10.041Z,19.5
2018-03-14T00:03:19.014Z,19.44
2018-03-14T00:04:27.984Z,19.46
2018-03-14T00:05:36.973Z,19.55
2018-03-14T00:06:45.958Z,19.46
2018-03-14T00:07:54.918Z,19.51
2018-03-14T00:09:03.609Z,19.48
2018-03-14T00:10:13.164Z,19.5
2018-03-14T00:11:22.139Z,19.54
2018-03-14T00:12:31.973Z,19.51
2018-03-14T00:13:41.513Z,19.48
2018-03-14T00:14:50.772Z,19.56
2018-03-14T00:15:59.759Z,19.5
2018-03-14T00:17:08.733Z,19.55
2018-03-14T00:18:18.019Z,19.51
2018-03-14T00:19:27.329Z,19.51
2018-03-14T00:20:36.586Z,19.47
2018-03-14T00:21:45.275Z,19.48
2018-03-14T00:22:54.263Z,19.55
2018-03-14T00:24:03.249Z,19.51
2018-03-14T00:25:11.939Z,19.47
2018-03-14T00:26:20.910Z,19.51
2018-03-14T00:27:29.597Z,19.51
2018-03-14T00:28:38.864Z,19.44
2018-03-14T00:29:47.832Z,19.55
2018-03-14T00:30:56.797Z,19.51
2018-03-14T00:32:06.068Z,19.47
2018-03-14T00:33:15.318Z,19.51
2018-03-14T00:34:24.005Z,19.48
2018-03-14T00:35:32.695Z,19.51
2018-03-14T00:36:42.236Z,19.54
2018-03-14T00:37:51.206Z,19.51
2018-03-14T00:39:00.183Z,19.51
2018-03-14T00:40:09.467Z,19.47
2018-03-14T00:41:18.723Z,19.47
2018-03-14T00:42:27.689Z,19.46
2018-03-14T00:43:37.245Z,19.48
2018-03-14T00:44:46.503Z,19.48
2018-03-14T00:45:55.473Z,19.5
2018-03-14T00:47:04.741Z,19.47
2018-03-14T00:48:14.020Z,19.44
2018-03-14T00:49:23.281Z,19.5
2018-03-14T00:50:32.562Z,19.47
2018-03-14T00:51:41.257Z,19.46
2018-03-14T00:52:50.522Z,19.48
2018-03-14T00:53:59.537Z,19.47
2018-03-14T00:55:08.232Z,19.41
2018-03-14T00:56:17.495Z,19.46
2018-03-14T00:57:26.772Z,19.46
2018-03-14T00:58:36.594Z,19.47
2018-03-14T00:59:45.286Z,19.37
2018-03-14T01:00:54.278Z,19.48
2018-03-14T01:02:03.249Z,19.44
2018-03-14T01:03:13.085Z,19.36
2018-03-14T01:04:22.053Z,19.44
2018-03-14T01:05:31.866Z,19.4
2018-03-14T01:06:41.153Z,19.47
2018-03-14T01:07:50.457Z,19.4
2018-03-14T01:08:59.766Z,19.5
2018-03-14T01:10:09.314Z,19.43
2018-03-14T01:11:18.873Z,19.44
2018-03-14T01:12:28.424Z,19.43
2018-03-14T01:13:38.041Z,19.44
2018-03-14T01:14:48.494Z,19.32
2018-03-14T01:15:57.180Z,19.41
2018-03-14T01:17:08.514Z,19.4
2018-03-14T01:18:17.483Z,19.37
2018-03-14T01:19:27.190Z,19.4
2018-03-14T01:20:35.871Z,19.32
2018-03-14T01:21:46.271Z,19.43
2018-03-14T01:22:56.059Z,19.41
2018-03-14T01:24:07.221Z,19.47
2018-03-14T01:25:16.801Z,19.44
2018-03-14T01:26:27.196Z,19.36
2018-03-14T01:27:36.174Z,19.43
2018-03-14T01:28:45.143Z,19.44
2018-03-14T01:29:55.160Z,19.37
2018-03-14T01:31:04.140Z,19.36
2018-03-14T01:32:13.118Z,19.44
2018-03-14T01:33:22.749Z,19.43
2018-03-14T01:34:31.725Z,19.43
2018-03-14T01:35:41.911Z,19.4
2018-03-14T01:36:50.604Z,19.4
2018-03-14T01:37:59.601Z,19.44
2018-03-14T01:39:08.576Z,19.4
2018-03-14T01:40:18.114Z,19.36
2018-03-14T01:41:27.381Z,19.46
2018-03-14T01:42:36.666Z,19.4
2018-03-14T01:43:45.661Z,19.39
2018-03-14T01:44:54.629Z,19.41
2018-03-14T01:46:03.877Z,19.4
2018-03-14T01:47:12.568Z,19.4
2018-03-14T01:48:21.543Z,19.41
2018-03-14T01:49:30.526Z,19.36
2018-03-14T01:50:39.218Z,19.32
2018-03-14T01:51:48.189Z,19.33
2018-03-14T01:52:56.882Z,19.33
2018-03-14T01:54:05.571Z,19.39
2018-03-14T01:55:14.823Z,19.33
2018-03-14T01:56:24.939Z,19.4
2018-03-14T01:57:34.201Z,19.39
2018-03-14T01:58:43.163Z,19.4
2018-03-14T01:59:52.714Z,19.43
2018-03-14T02:01:01.965Z,19.37
2018-03-14T02:02:10.958Z,19.36
2018-03-14T02:03:19.650Z,19.36
2018-03-14T02:04:28.901Z,19.37
2018-03-14T02:05:38.155Z,19.32
2018-03-14T02:06:47.132Z,19.36
2018-03-14T02:07:56.396Z,19.4
2018-03-14T02:09:05.943Z,19.4
2018-03-14T02:10:15.490Z,19.36
2018-03-14T02:11:24.178Z,19.31
2018-03-14T02:12:33.156Z,19.28
2018-03-14T02:13:42.413Z,19.31
2018-03-14T02:14:51.991Z,19.33
2018-03-14T02:16:01.281Z,19.33
2018-03-14T02:17:10.270Z,19.33
2018-03-14T02:18:19.523Z,19.29
2018-03-14T02:19:29.373Z,19.28
2018-03-14T02:20:38.907Z,19.29
2018-03-14T02:21:48.194Z,19.33
2018-03-14T02:22:57.174Z,19.26
2018-03-14T02:24:06.455Z,19.31
2018-03-14T02:25:15.417Z,19.31
2018-03-14T02:26:24.386Z,19.26
2018-03-14T02:27:33.957Z,19.32
2018-03-14T02:28:43.211Z,19.33
2018-03-14T02:29:52.179Z,19.37
2018-03-14T02:31:01.159Z,19.29
2018-03-14T02:32:10.433Z,19.36
2018-03-14T02:33:19.692Z,19.37
2018-03-14T02:34:28.963Z,19.32
2018-03-14T02:35:38.795Z,19.26
2018-03-14T02:36:47.772Z,19.31
2018-03-14T02:37:56.465Z,19.26
2018-03-14T02:39:05.741Z,19.36
2018-03-14T02:40:15.267Z,19.32
2018-03-14T02:41:24.246Z,19.31
2018-03-14T02:42:33.519Z,19.36
2018-03-14T02:43:42.789Z,19.28
2018-03-14T02:44:52.048Z,19.37
2018-03-14T02:46:01.541Z,19.28
2018-03-14T02:47:11.036Z,19.28
2018-03-14T02:48:20.539Z,19.36
2018-03-14T02:49:29.235Z,19.28
2018-03-14T02:50:38.191Z,19.25
2018-03-14T02:51:47.698Z,19.25
2018-03-14T02:52:56.657Z,19.33
2018-03-14T02:54:05.888Z,19.28
2018-03-14T02:55:14.846Z,19.25
2018-03-14T02:56:24.073Z,19.33
2018-03-14T02:57:33.835Z,19.32
2018-03-14T02:58:42.794Z,19.32
2018-03-14T02:59:51.749Z,19.33
2018-03-14T03:01:00.440Z,19.26
2018-03-14T03:02:09.398Z,19.33
2018-03-14T03:03:18.627Z,19.36
2018-03-14T03:04:27.602Z,19.28
2018-03-14T03:05:36.296Z,19.32
2018-03-14T03:06:45.255Z,19.31
2018-03-14T03:07:54.220Z,19.31
2018-03-14T03:09:03.183Z,19.26
2018-03-14T03:10:12.148Z,19.37
2018-03-14T03:11:21.373Z,19.32
2018-03-14T03:12:30.863Z,19.31
2018-03-14T03:13:40.088Z,19.29
2018-03-14T03:14:49.590Z,19.29
2018-03-14T03:15:58.816Z,19.28
2018-03-14T03:17:08.048Z,19.26
2018-03-14T03:18:17.008Z,19.26
2018-03-14T03:19:25.693Z,19.26
2018-03-14T03:20:34.650Z,19.25
2018-03-14T03:21:44.416Z,19.28
2018-03-14T03:22:53.907Z,19.31
2018-03-14T03:24:03.130Z,19.28
2018-03-14T03:25:12.356Z,19.26
2018-03-14T03:26:21.579Z,19.29
2018-03-14T03:27:30.807Z,19.25
2018-03-14T03:28:40.582Z,19.23
2018-03-14T03:29:50.078Z,19.29
2018-03-14T03:30:59.576Z,19.25
2018-03-14T03:32:08.814Z,19.28
2018-03-14T03:33:18.045Z,19.23
2018-03-14T03:34:27.266Z,19.28
2018-03-14T03:35:36.219Z,19.21
2018-03-14T03:36:45.453Z,19.19
2018-03-14T03:37:54.679Z,19.28
2018-03-14T03:39:03.900Z,19.25
2018-03-14T03:40:13.396Z,19.25
2018-03-14T03:41:22.356Z,19.28
2018-03-14T03:42:31.311Z,19.29
2018-03-14T03:43:40.268Z,19.32
2018-03-14T03:44:49.756Z,19.28
2018-03-14T03:45:59.781Z,19.21
2018-03-14T03:47:09.277Z,19.28
2018-03-14T03:48:18.512Z,19.23
2018-03-14T03:49:28.010Z,19.32
2018-03-14T03:50:36.969Z,19.28
2018-03-14T03:51:45.660Z,19.28
2018-03-14T03:52:54.351Z,19.25
2018-03-14T03:54:03.848Z,19.16
2018-03-14T03:55:12.807Z,19.22
2018-03-14T03:56:22.034Z,19.26
2018-03-14T03:57:31.524Z,19.28
2018-03-14T03:58:40.481Z,19.23
2018-03-14T03:59:49.711Z,19.19
2018-03-14T04:00:58.930Z,19.19
2018-03-14T04:02:08.155Z,19.22
2018-03-14T04:03:17.115Z,19.19
2018-03-14T04:04:26.077Z,19.28
2018-03-14T04:05:35.031Z,19.26
2018-03-14T04:06:44.530Z,19.28
2018-03-14T04:07:53.756Z,19.26
2018-03-14T04:09:02.713Z,19.22
2018-03-14T04:10:12.477Z,19.25
2018-03-14T04:11:21.704Z,19.14
2018-03-14T04:12:31.467Z,19.22
2018-03-14T04:13:40.429Z,19.21
2018-03-14T04:14:49.116Z,19.26
2018-03-14T04:15:58.345Z,19.21
2018-03-14T04:17:07.301Z,19.23
2018-03-14T04:18:16.262Z,19.22
2018-03-14T04:19:25.488Z,19.23
2018-03-14T04:20:34.178Z,19.22
2018-03-14T04:21:43.673Z,19.23
2018-03-14T04:22:52.627Z,19.21
2018-03-14T04:24:01.587Z,19.23
2018-03-14T04:25:10.541Z,19.16
2018-03-14T04:26:19.499Z,19.14
2018-03-14T04:27:28.999Z,19.16
2018-03-14T04:28:38.498Z,19.13
2018-03-14T04:29:47.467Z,19.11
2018-03-14T04:30:56.153Z,19.18
2018-03-14T04:32:05.110Z,19.23
2018-03-14T04:33:14.062Z,19.11
2018-03-14T04:34:23.559Z,19.21
2018-03-14T04:35:32.784Z,19.1
2018-03-14T04:36:42.013Z,19.18
2018-03-14T04:37:51.515Z,19.19
2018-03-14T04:39:00.478Z,19.21
2018-03-14T04:40:09.432Z,19.13
2018-03-14T04:41:18.392Z,19.18
2018-03-14T04:42:27.887Z,19.16
2018-03-14T04:43:37.124Z,19.14
2018-03-14T04:44:45.816Z,19.22
2018-03-14T04:45:55.319Z,19.21
2018-03-14T04:47:04.275Z,19.14
2018-03-14T04:48:13.771Z,19.16
2018-03-14T04:49:22.729Z,19.16
2018-03-14T04:50:31.965Z,19.16
2018-03-14T04:51:41.202Z,19.1
2018-03-14T04:52:50.423Z,19.21
2018-03-14T04:53:59.652Z,19.14
2018-03-14T04:55:09.680Z,19.16
2018-03-14T04:56:18.959Z,19.13
2018-03-14T04:57:28.468Z,19.18
2018-03-14T04:58:37.155Z,19.11
2018-03-14T04:59:46.653Z,19.16
2018-03-14T05:00:55.883Z,19.11
2018-03-14T05:02:05.105Z,19.11
2018-03-14T05:03:14.340Z,19.1
2018-03-14T05:04:23.565Z,19.07
2018-03-14T05:05:32.523Z,19.08
2018-03-14T05:06:41.484Z,19.16
2018-03-14T05:07:50.709Z,19.07
2018-03-14T05:09:00.207Z,19.07
2018-03-14T05:10:09.708Z,19.14
2018-03-14T05:11:19.470Z,19.11
2018-03-14T05:12:28.156Z,19.14
2018-03-14T05:13:37.383Z,19.16
2018-03-14T05:14:46.644Z,19.14
2018-03-14T05:15:56.137Z,19.16
2018-03-14T05:17:05.633Z,19.11
2018-03-14T05:18:14.323Z,19.18
2018-03-14T05:19:23.552Z,19.21
2018-03-14T05:20:33.053Z,19.11
2018-03-14T05:21:42.271Z,19.11
2018-03-14T05:22:51.756Z,19.11
2018-03-14T05:24:01.253Z,19.21
2018-03-14T05:25:10.750Z,19.28
2018-03-14T05:26:20.248Z,19.29
2018-03-14T05:27:29.210Z,19.22
2018-03-14T05:28:38.988Z,19.23
2018-03-14T05:29:48.219Z,19.31
2018-03-14T05:30:57.446Z,19.26
2018-03-14T05:32:06.147Z,19.25
2018-03-14T05:33:15.372Z,19.37
2018-03-14T05:34:24.603Z,19.29
2018-03-14T05:35:33.297Z,19.29
2018-03-14T05:36:43.071Z,19.32
2018-03-14T05:37:52.292Z,19.36
2018-03-14T05:39:01.251Z,19.33
2018-03-14T05:40:10.479Z,19.31
2018-03-14T05:41:19.169Z,19.37
2018-03-14T05:42:28.662Z,19.25
2018-03-14T05:43:37.631Z,19.31
2018-03-14T05:44:46.589Z,19.29
2018-03-14T05:45:56.095Z,19.33
2018-03-14T05:47:05.317Z,19.33
2018-03-14T05:48:14.544Z,19.33
2018-03-14T05:49:23.507Z,19.39
2018-03-14T05:50:33.014Z,19.33
2018-03-14T05:51:42.247Z,19.39
2018-03-14T05:52:51.209Z,19.39
2018-03-14T05:54:00.433Z,19.48
2018-03-14T05:55:09.661Z,19.44
2018-03-14T05:56:18.349Z,19.36
2018-03-14T05:57:27.573Z,19.44
2018-03-14T05:58:36.803Z,19.44
2018-03-14T05:59:45.545Z,19.39
2018-03-14T06:00:54.720Z,19.4
2018-03-14T06:02:03.679Z,19.36
2018-03-14T06:03:13.182Z,19.44
2018-03-14T06:04:21.874Z,19.46
2018-03-14T06:05:30.567Z,19.44
2018-03-14T06:06:39.793Z,19.37
2018-03-14T06:07:48.751Z,19.46
2018-03-14T06:08:57.712Z,19.47
2018-03-14T06:10:06.678Z,19.44
2018-03-14T06:11:15.922Z,19.47
2018-03-14T06:12:24.601Z,19.4
2018-03-14T06:13:33.824Z,19.46
2018-03-14T06:14:43.314Z,19.48
2018-03-14T06:15:52.271Z,19.39
2018-03-14T06:17:01.561Z,19.33
2018-03-14T06:18:10.463Z,19.4
2018-03-14T06:19:19.423Z,19.36
2018-03-14T06:20:28.380Z,19.4
2018-03-14T06:21:37.073Z,19.33
2018-03-14T06:22:46.301Z,19.36
2018-03-14T06:23:55.257Z,19.37
2018-03-14T06:25:04.805Z,19.4
2018-03-14T06:26:14.579Z,19.36
2018-03-14T06:27:23.540Z,19.44
2018-03-14T06:28:32.771Z,19.39
2018-03-14T06:29:42.012Z,19.43
2018-03-14T06:30:51.270Z,19.43
2018-03-14T06:32:00.491Z,19.43
2018-03-14T06:33:09.716Z,19.43
2018-03-14T06:34:18.670Z,19.37
2018-03-14T06:35:28.164Z,19.33
2018-03-14T06:36:37.388Z,19.39
2018-03-14T06:37:46.880Z,19.4
2018-03-14T06:38:55.833Z,19.44
2018-03-14T06:40:05.059Z,19.43
2018-03-14T06:41:14.026Z,19.37
2018-03-14T06:42:23.519Z,19.37
2018-03-14T06:43:32.750Z,19.36
2018-03-14T06:44:42.240Z,19.37
2018-03-14T06:45:51.472Z,19.4
2018-03-14T06:47:00.965Z,19.43
2018-03-14T06:48:10.460Z,19.36
2018-03-14T06:49:19.684Z,19.36
2018-03-14T06:50:28.909Z,19.39
2018-03-14T06:51:37.598Z,19.39
2018-03-14T06:52:47.092Z,19.39
2018-03-14T06:53:55.781Z,19.36
2018-03-14T06:55:05.279Z,19.33
2018-03-14T06:56:14.772Z,19.36
2018-03-14T06:57:23.998Z,19.4
2018-03-14T06:58:33.226Z,19.36
2018-03-14T06:59:42.724Z,19.39
2018-03-14T07:00:51.679Z,19.39
2018-03-14T07:02:01.176Z,19.36
2018-03-14T07:03:10.442Z,19.36
2018-03-14T07:04:19.676Z,19.39
2018-03-14T07:05:28.904Z,19.39
2018-03-14T07:06:38.398Z,19.39
2018-03-14T07:07:47.088Z,19.4
2018-03-14T07:08:56.311Z,19.37
2018-03-14T07:10:05.534Z,19.43
2018-03-14T07:11:14.763Z,19.39
2018-03-14T07:12:24.344Z,19.41
2018-03-14T07:13:33.578Z,19.32
2018-03-14T07:14:42.806Z,19.32
2018-03-14T07:15:51.491Z,19.48
2018-03-14T07:17:00.183Z,19.32
2018-03-14T07:18:09.138Z,19.37
2018-03-14T07:19:18.363Z,19.41
2018-03-14T07:20:27.320Z,19.36
2018-03-14T07:21:36.548Z,19.32
2018-03-14T07:22:45.777Z,19.32
2018-03-14T07:23:54.736Z,19.37
2018-03-14T07:25:03.693Z,19.36
2018-03-14T07:26:12.953Z,19.36
2018-03-14T07:27:22.188Z,19.39
2018-03-14T07:28:31.796Z,19.44
2018-03-14T07:29:41.023Z,19.4
2018-03-14T07:30:49.981Z,19.43
2018-03-14T07:31:58.936Z,19.36
2018-03-14T07:33:07.625Z,19.41
2018-03-14T07:34:16.579Z,19.31
2018-03-14T07:35:26.099Z,19.37
2018-03-14T07:36:35.331Z,19.43
2018-03-14T07:37:44.291Z,19.44
2018-03-14T07:38:52.982Z,19.44
2018-03-14T07:40:02.206Z,19.4
2018-03-14T07:41:11.432Z,19.41
2018-03-14T07:42:20.925Z,19.4
2018-03-14T07:43:30.157Z,19.37
2018-03-14T07:44:39.965Z,19.4
2018-03-14T07:45:49.252Z,19.4
2018-03-14T07:46:58.491Z,19.46
2018-03-14T07:48:07.448Z,19.39
2018-03-14T07:49:16.672Z,19.41
2018-03-14T07:50:25.361Z,19.43
2018-03-14T07:51:34.859Z,19.36
2018-03-14T07:52:43.553Z,19.39
2018-03-14T07:53:52.509Z,19.4
2018-03-14T07:55:01.732Z,19.37
2018-03-14T07:56:10.691Z,19.4
2018-03-14T07:57:19.929Z,19.36
2018-03-14T07:58:29.161Z,19.33
2018-03-14T07:59:38.657Z,19.37
2018-03-14T08:00:48.145Z,19.33
2018-03-14T08:01:56.836Z,19.39
2018-03-14T08:03:05.530Z,19.39
2018-03-14T08:04:15.289Z,19.33
2018-03-14T08:05:24.246Z,19.39
2018-03-14T08:06:33.753Z,19.32
2018-03-14T08:07:43.653Z,19.4
2018-03-14T08:08:52.313Z,19.4
2018-03-14T08:10:00.999Z,19.32
2018-03-14T08:11:10.228Z,19.39
2018-03-14T08:12:19.461Z,19.39
2018-03-14T08:13:29.680Z,19.36
2018-03-14T08:14:39.411Z,19.39
2018-03-14T08:15:48.641Z,19.39
2018-03-14T08:16:57.334Z,19.41
2018-03-14T08:18:06.829Z,19.39
2018-03-14T08:19:15.786Z,19.4
2018-03-14T08:20:25.013Z,19.37
2018-03-14T08:21:33.702Z,19.36
2018-03-14T08:22:43.195Z,19.36
2018-03-14T08:23:52.688Z,19.37
2018-03-14T08:25:02.180Z,19.43
2018-03-14T08:26:11.696Z,19.39
2018-03-14T08:27:21.216Z,19.41
2018-03-14T08:28:30.708Z,19.39
2018-03-14T08:29:39.669Z,19.39
2018-03-14T08:30:48.671Z,19.33
2018-03-14T08:31:57.877Z,19.36
2018-03-14T08:33:06.564Z,19.33
2018-03-14T08:34:16.328Z,19.37
2018-03-14T08:35:25.877Z,19.39
2018-03-14T08:36:35.371Z,19.33
2018-03-14T08:37:44.059Z,19.33
2018-03-14T08:38:53.015Z,19.36
2018-03-14T08:40:01.973Z,19.4
2018-03-14T08:41:10.931Z,19.36
2018-03-14T08:42:20.156Z,19.4
2018-03-14T08:43:29.115Z,19.4
2018-03-14T08:44:38.347Z,19.33
2018-03-14T08:45:47.039Z,19.32
2018-03-14T08:46:56.091Z,19.41
2018-03-14T08:48:05.582Z,19.37
2018-03-14T08:49:14.818Z,19.39
2018-03-14T08:50:24.640Z,19.33
2018-03-14T08:51:33.913Z,19.33
2018-03-14T08:52:42.877Z,19.25
2018-03-14T08:53:51.837Z,19.32
2018-03-14T08:55:00.526Z,19.31
2018-03-14T08:56:09.749Z,19.29
2018-03-14T08:57:18.976Z,19.29
2018-03-14T08:58:27.931Z,19.28
2018-03-14T08:59:37.207Z,19.28
2018-03-14T09:00:45.900Z,19.28
2018-03-14T09:01:54.860Z,19.37
2018-03-14T09:03:03.547Z,19.33
2018-03-14T09:04:12.503Z,19.26
2018-03-14T09:05:21.732Z,19.28
2018-03-14T09:06:30.691Z,19.28
2018-03-14T09:07:39.649Z,19.26
2018-03-14T09:08:49.155Z,19.28
2018-03-14T09:09:58.657Z,19.21
2018-03-14T09:11:07.376Z,19.32
2018-03-14T09:12:16.946Z,19.28
2018-03-14T09:13:25.902Z,19.28
2018-03-14T09:14:34.859Z,19.26
2018-03-14T09:15:44.351Z,19.23
2018-03-14T09:16:53.308Z,19.25
2018-03-14T09:18:02.268Z,19.23
2018-03-14T09:19:10.961Z,19.22
2018-03-14T09:20:20.188Z,19.18
2018-03-14T09:21:29.951Z,19.23
2018-03-14T09:22:39.441Z,19.23
2018-03-14T09:23:49.204Z,19.28
2018-03-14T09:24:58.430Z,19.23
2018-03-14T09:26:07.386Z,19.23
2018-03-14T09:27:16.874Z,19.19
2018-03-14T09:28:26.633Z,19.21
2018-03-14T09:29:35.860Z,19.25
2018-03-14T09:30:45.627Z,19.16
2018-03-14T09:31:54.856Z,19.18
2018-03-14T09:33:03.822Z,19.14
2018-03-14T09:34:13.315Z,19.11
2018-03-14T09:35:22.007Z,19.19
2018-03-14T09:36:31.236Z,19.22
2018-03-14T09:37:40.472Z,19.16
2018-03-14T09:38:49.696Z,19.14
2018-03-14T09:39:58.923Z,19.13
2018-03-14T09:41:08.148Z,19.14
2018-03-14T09:42:17.104Z,19.23
2018-03-14T09:43:26.067Z,19.25
2018-03-14T09:44:35.024Z,19.25
2018-03-14T09:45:44.255Z,19.18
2018-03-14T09:46:53.752Z,19.18
2018-03-14T09:48:02.711Z,19.14
2018-03-14T09:49:11.938Z,19.23
2018-03-14T09:50:21.165Z,19.25
2018-03-14T09:51:30.410Z,19.18
2018-03-14T09:52:39.621Z,19.28
2018-03-14T09:53:48.844Z,19.22
2018-03-14T09:54:57.535Z,19.29
2018-03-14T09:56:07.032Z,19.18
2018-03-14T09:57:16.289Z,19.28
2018-03-14T09:58:25.794Z,19.26
2018-03-14T09:59:35.567Z,19.29
2018-03-14T10:00:44.823Z,19.28
2018-03-14T10:01:53.787Z,19.28
2018-03-14T10:03:03.017Z,19.25
2018-03-14T10:04:12.258Z,19.32
2018-03-14T10:05:21.216Z,19.33
2018-03-14T10:06:30.714Z,19.28
2018-03-14T10:07:40.202Z,19.26
2018-03-14T10:08:49.973Z,19.28
2018-03-14T10:09:58.936Z,19.31
2018-03-14T10:11:08.698Z,19.29
2018-03-14T10:12:17.932Z,19.31
2018-03-14T10:13:27.688Z,19.29
2018-03-14T10:14:36.918Z,19.32
2018-03-14T10:15:46.681Z,19.28
2018-03-14T10:16:56.446Z,19.36
2018-03-14T10:18:05.687Z,19.26
2018-03-14T10:19:15.373Z,19.28
2018-03-14T10:20:24.593Z,19.32
2018-03-14T10:21:33.819Z,19.28
2018-03-14T10:22:43.311Z,19.33
2018-03-14T10:23:52.006Z,19.36
2018-03-14T10:25:01.508Z,19.31
2018-03-14T10:26:10.466Z,19.36
2018-03-14T10:27:19.957Z,19.36
2018-03-14T10:28:29.196Z,19.32
2018-03-14T10:29:38.413Z,19.31
2018-03-14T10:30:47.373Z,19.29
2018-03-14T10:31:56.334Z,19.33
2018-03-14T10:33:05.029Z,19.31
2018-03-14T10:34:14.262Z,19.25
2018-03-14T10:35:23.760Z,19.36
2018-03-14T10:36:33.254Z,19.25
2018-03-14T10:37:42.481Z,19.31
2018-03-14T10:38:51.704Z,19.31
2018-03-14T10:40:01.196Z,19.28
2018-03-14T10:41:10.153Z,19.33
2018-03-14T10:42:19.924Z,19.28
2018-03-14T10:43:29.149Z,19.29
2018-03-14T10:44:38.106Z,19.37
2018-03-14T10:45:47.337Z,19.31
2018-03-14T10:46:56.837Z,19.25
2018-03-14T10:48:06.068Z,19.36
2018-03-14T10:49:15.657Z,19.25
2018-03-14T10:50:24.559Z,19.28
2018-03-14T10:51:33.520Z,19.36
2018-03-14T10:52:42.479Z,19.28
2018-03-14T10:53:51.981Z,19.31
2018-03-14T10:55:00.935Z,19.25
2018-03-14T10:56:09.893Z,19.32
2018-03-14T10:57:19.384Z,19.37
2018-03-14T10:58:28.612Z,19.36
2018-03-14T10:59:37.842Z,19.29
2018-03-14T11:00:47.333Z,19.26
2018-03-14T11:01:56.561Z,19.25
2018-03-14T11:03:05.518Z,19.33
2018-03-14T11:04:14.475Z,19.28
2018-03-14T11:05:23.974Z,19.25
2018-03-14T11:06:33.201Z,19.28
2018-03-14T11:07:42.721Z,19.26
2018-03-14T11:08:51.660Z,19.37
2018-03-14T11:10:00.888Z,19.33
2018-03-14T11:11:10.115Z,19.28
2018-03-14T11:12:19.343Z,19.28
2018-03-14T11:13:28.570Z,19.31
2018-03-14T11:14:37.800Z,19.32
2018-03-14T11:15:47.036Z,19.31
2018-03-14T11:16:56.267Z,19.36
2018-03-14T11:18:06.063Z,19.31
2018-03-14T11:19:15.612Z,19.36
2018-03-14T11:20:25.221Z,19.39
2018-03-14T11:21:34.845Z,19.36
2018-03-14T11:22:44.173Z,19.39
2018-03-14T11:23:53.398Z,19.37
2018-03-14T11:25:02.634Z,19.44
2018-03-14T11:26:11.861Z,19.39
2018-03-14T11:27:21.359Z,19.46
2018-03-14T11:28:30.589Z,19.47
2018-03-14T11:29:39.544Z,19.46
2018-03-14T11:30:48.530Z,19.47
2018-03-14T11:31:57.733Z,19.54
2018-03-14T11:33:06.423Z,19.5
2018-03-14T11:34:15.920Z,19.54
2018-03-14T11:35:25.148Z,19.5
2018-03-14T11:36:34.636Z,19.56
2018-03-14T11:37:43.592Z,19.55
2018-03-14T11:38:52.291Z,19.51
2018-03-14T11:40:01.792Z,19.51
2018-03-14T11:41:10.748Z,19.54
2018-03-14T11:42:19.987Z,19.55
2018-03-14T11:43:29.825Z,19.51
2018-03-14T11:44:39.092Z,19.55
2018-03-14T11:45:48.338Z,19.58
2018-03-14T11:46:57.029Z,19.62
2018-03-14T11:48:05.982Z,19.56
2018-03-14T11:49:14.674Z,19.56
2018-03-14T11:50:23.902Z,19.56
2018-03-14T11:51:32.859Z,19.55
2018-03-14T11:52:42.087Z,19.59
2018-03-14T11:53:51.317Z,19.59
2018-03-14T11:55:00.819Z,19.65
2018-03-14T11:56:09.777Z,19.58
2018-03-14T11:57:18.526Z,19.56
2018-03-14T11:58:28.094Z,19.59
2018-03-14T11:59:37.315Z,19.59
2018-03-14T12:00:46.818Z,19.65
2018-03-14T12:01:55.782Z,19.68
2018-03-14T12:03:04.741Z,19.66
2018-03-14T12:04:13.696Z,19.73
2018-03-14T12:05:23.184Z,19.66
2018-03-14T12:06:32.410Z,19.73
2018-03-14T12:07:41.691Z,19.76
2018-03-14T12:08:50.918Z,19.74
2018-03-14T12:10:00.676Z,19.74
2018-03-14T12:11:09.698Z,19.71
2018-03-14T12:12:19.054Z,19.71
2018-03-14T12:13:28.694Z,19.73
2018-03-14T12:14:37.385Z,19.83
2018-03-14T12:15:46.072Z,19.83
2018-03-14T12:16:55.573Z,19.84
2018-03-14T12:18:04.262Z,19.84
2018-03-14T12:19:13.497Z,19.76
2018-03-14T12:20:22.992Z,19.86
2018-03-14T12:21:31.956Z,19.8
2018-03-14T12:22:41.181Z,19.81
2018-03-14T12:23:50.411Z,19.83
2018-03-14T12:24:59.645Z,19.87
2018-03-14T12:26:08.607Z,19.81
2018-03-14T12:27:17.298Z,19.83
2018-03-14T12:28:25.986Z,19.83
2018-03-14T12:29:35.477Z,19.91
2018-03-14T12:30:44.707Z,19.83
2018-03-14T12:31:53.938Z,19.83
2018-03-14T12:33:03.172Z,19.86
2018-03-14T12:34:12.130Z,19.8
2018-03-14T12:35:21.085Z,19.86
2018-03-14T12:36:29.773Z,19.81
2018-03-14T12:37:39.269Z,19.66
2018-03-14T12:38:48.494Z,19.59
2018-03-14T12:39:57.723Z,19.51
2018-03-14T12:41:07.270Z,19.37
2018-03-14T12:42:16.327Z,19.32
2018-03-14T12:43:25.876Z,19.29
2018-03-14T12:44:34.837Z,19.26
2018-03-14T12:45:44.058Z,19.19
2018-03-14T12:46:53.023Z,19.22
2018-03-14T12:48:02.251Z,19.1
2018-03-14T12:49:11.759Z,19.11
2018-03-14T12:50:20.981Z,19.07
2018-03-14T12:51:30.480Z,19.06
2018-03-14T12:52:39.461Z,19.08
2018-03-14T12:53:48.881Z,18.99
2018-03-14T12:54:59.549Z,18.95
2018-03-14T12:56:09.380Z,18.9
2018-03-14T12:57:19.193Z,18.88
2018-03-14T12:58:29.609Z,18.9
2018-03-14T12:59:39.611Z,18.82
2018-03-14T13:00:49.381Z,18.84
2018-03-14T13:01:59.689Z,18.85
2018-03-14T13:03:09.314Z,18.78
2018-03-14T13:04:19.171Z,18.85
2018-03-14T13:05:29.195Z,18.85
2018-03-14T13:06:38.925Z,18.85
2018-03-14T13:07:48.691Z,18.81
2018-03-14T13:08:57.783Z,18.84
2018-03-14T13:10:07.081Z,18.9
2018-03-14T13:11:16.678Z,18.9
2018-03-14T13:12:25.739Z,18.88
2018-03-14T13:13:35.661Z,18.8
2018-03-14T13:14:44.718Z,18.91
2018-03-14T13:15:53.749Z,18.9
2018-03-14T13:17:02.774Z,18.87
2018-03-14T13:18:12.702Z,18.88
2018-03-14T13:19:21.962Z,18.91
2018-03-14T13:20:32.005Z,18.9
2018-03-14T13:21:41.534Z,18.98
2018-03-14T13:22:51.099Z,18.84
2018-03-14T13:24:01.312Z,18.91
2018-03-14T13:25:12.074Z,18.92
2018-03-14T13:26:21.135Z,19.02
2018-03-14T13:27:30.449Z,19.1
2018-03-14T13:28:39.782Z,19.06
2018-03-14T13:29:51.130Z,19.11
2018-03-14T13:31:01.269Z,19.19
2018-03-14T13:32:12.264Z,19.11
2018-03-14T13:33:21.772Z,19.28
2018-03-14T13:34:31.068Z,19.26
2018-03-14T13:35:40.380Z,19.28
